Axel, Netherlands
Current Conditions -  °F | °C
As of 6:25 AM on Wednesday 22 Oct 2014 (Local Time) from EHFS Reporting Station
Broken Clouds Broken Clouds  
Wind Chill: 52°   Ceiling: 3600
Heat Index: 52°   Visibility: 6mi
Dew Point: 39°   Wind: 24mph
Humidity: 62%   Direction: 300°WNW
Pressure: 30.06"   Gusts: 39mph
Location:  51.27°N, 3.91°E
Report Text: EHFS 220425Z AUTO 30021G34KT 250V330 9999 SCT031/// BKN036///BKN041/// 11/04 Q1018
Loading
Personal Weather Stations






























Interactive Weather Map
Tropical Storm Tracking
New forecast layout! Learn more

10-Day Weather Forecast

Advertisements
Track Severe Weather on mobile